Time;durP1;ratioP1;P1;durP2;ratioP2;P2;SDS_P1;SDS_P2;PMS_P1;PMS_P2;Temp;Humidity;BMP_temperature;BMP_pressure;BME280_temperature;BME280_humidity;BME280_pressure;Samples;Min_cycle;Max_cycle;Signal;HPM_P1;HPM_P2
2021/03/24 00:01:22;;;;;;;1.27;0.70;;;;;;;-0.03;67.98;97698.33;1635695;85;21712;-64
2021/03/24 00:03:51;;;;;;;0.65;0.60;;;;;;;-0.03;67.98;97698.33;1608634;88;21283;-67
2021/03/24 00:06:20;;;;;;;1.12;0.68;;;;;;;-0.05;67.59;97703.98;1634720;85;21211;-66
2021/03/24 00:08:48;;;;;;;1.72;1.37;;;;;;;-0.07;67.46;97704.50;1637374;85;21605;-66
2021/03/24 00:11:17;;;;;;;3.60;1.35;;;;;;;-0.07;67.46;97704.50;1635656;85;21661;-63
2021/03/24 00:13:45;;;;;;;2.77;1.25;;;;;;;-0.07;67.05;97703.68;1629353;85;21197;-63
2021/03/24 00:16:13;;;;;;;1.35;1.25;;;;;;;-0.08;66.79;97708.44;1639658;86;21214;-63
2021/03/24 00:18:42;;;;;;;1.27;0.95;;;;;;;-0.15;66.46;97704.55;1641234;85;21251;-64
2021/03/24 00:21:10;;;;;;;4.20;1.52;;;;;;;-0.15;66.46;97704.55;1647297;86;21202;-65
2021/03/24 00:23:38;;;;;;;1.37;1.27;;;;;;;-0.13;66.39;97709.95;1634119;85;21239;-63
2021/03/24 00:26:07;;;;;;;2.02;1.25;;;;;;;-0.16;66.30;97710.12;1635840;86;21215;-63
2021/03/24 00:28:36;;;;;;;2.47;1.85;;;;;;;-0.20;66.21;97712.48;1628985;85;21252;-63
2021/03/24 00:31:04;;;;;;;2.50;1.98;;;;;;;-0.26;66.29;97713.23;1642713;85;21247;-65
2021/03/24 00:33:32;;;;;;;1.95;1.30;;;;;;;-0.35;66.61;97706.89;1621972;85;21224;-64
2021/03/24 00:36:01;;;;;;;11.97;1.37;;;;;;;-0.41;67.10;97716.16;1623914;85;21709;-62
2021/03/24 00:38:29;;;;;;;0.80;0.80;;;;;;;-0.49;67.01;97702.98;1630499;86;21219;-63
2021/03/24 00:41:01;;;;;;;2.12;1.17;;;;;;;-0.50;66.79;97708.98;1605009;88;21217;-62
2021/03/24 00:43:29;;;;;;;1.95;1.55;;;;;;;-0.53;67.23;97715.52;1642298;85;21214;-65
2021/03/24 00:45:58;;;;;;;0.90;0.80;;;;;;;-0.60;67.14;97717.58;1634660;85;21176;-62
2021/03/24 00:48:33;;;;;;;1.10;0.80;;;;;;;-0.66;67.28;97722.98;1645568;85;21543;-62
2021/03/24 00:51:04;;;;;;;0.57;0.45;;;;;;;-0.71;68.00;97721.59;1605806;88;21245;-62
2021/03/24 00:53:32;;;;;;;0.75;0.60;;;;;;;-0.75;67.84;97723.93;1608360;88;21646;-69
2021/03/24 00:56:00;;;;;;;1.07;0.90;;;;;;;-0.87;68.58;97725.38;1605989;88;21642;-62
2021/03/24 00:58:28;;;;;;;1.25;1.15;;;;;;;-0.87;68.58;97725.38;1643515;86;21172;-61
2021/03/24 01:00:56;;;;;;;2.85;0.90;;;;;;;-0.86;67.73;97732.58;1644881;85;21203;-61
2021/03/24 01:03:23;;;;;;;0.65;0.57;;;;;;;-0.89;67.71;97730.99;1633208;85;21236;-61
2021/03/24 01:05:52;;;;;;;1.30;0.50;;;;;;;-0.90;67.23;97734.91;1635362;85;21637;-62
2021/03/24 01:08:24;;;;;;;0.45;0.45;;;;;;;-0.91;66.54;97734.53;1636433;86;21164;-61
2021/03/24 01:10:54;;;;;;;0.95;0.60;;;;;;;-0.94;66.26;97741.89;1637387;86;21215;-62
2021/03/24 01:13:24;;;;;;;0.78;0.42;;;;;;;-0.95;65.92;97736.41;1636285;86;21224;-64
2021/03/24 01:15:53;;;;;;;1.02;0.82;;;;;;;-1.02;65.66;97730.81;1612979;88;21209;-64
2021/03/24 01:18:24;;;;;;;2.37;0.72;;;;;;;-1.06;64.44;97732.31;1631837;85;21685;-65
2021/03/24 01:20:53;;;;;;;0.60;0.57;;;;;;;-1.06;64.44;97732.31;1601943;88;21265;-63
2021/03/24 01:23:21;;;;;;;0.57;0.57;;;;;;;-1.05;64.61;97745.44;1629588;85;21293;-63
2021/03/24 01:25:50;;;;;;;0.85;0.62;;;;;;;-1.08;64.54;97745.56;1610053;88;21175;-63
2021/03/24 01:28:23;;;;;;;0.70;0.70;;;;;;;-1.12;64.02;97746.61;1607453;88;21204;-63
2021/03/24 01:30:57;;;;;;;4.80;1.15;;;;;;;-1.16;64.28;97743.40;1605961;88;21205;-63
2021/03/24 01:33:26;;;;;;;0.93;0.70;;;;;;;-1.19;63.97;97741.45;1605724;88;21233;-64
2021/03/24 01:35:55;;;;;;;0.85;0.53;;;;;;;-1.22;64.21;97739.06;1608585;88;21800;-64
2021/03/24 01:38:24;;;;;;;0.78;0.60;;;;;;;-1.26;64.13;97743.94;1594421;89;21182;-64
2021/03/24 01:41:00;;;;;;;0.57;0.42;;;;;;;-1.32;64.36;97741.70;1587151;88;21284;-63
2021/03/24 01:43:31;;;;;;;;;;;;;;;-1.36;64.74;97741.48;1593861;88;21181;-64
2021/03/24 01:46:26;;;;;;;2.47;0.90;;;;;;;-1.40;64.33;97739.98;1607026;88;20136;-64
2021/03/24 01:49:02;;;;;;;2.65;0.53;;;;;;;-1.46;62.50;97745.73;1628557;85;21228;-64
2021/03/24 01:51:42;;;;;;;2.10;0.82;;;;;;;-1.49;62.79;97746.33;1626505;85;21185;-64
2021/03/24 01:54:18;;;;;;;0.57;0.57;;;;;;;-1.52;63.05;97743.47;1634761;86;21284;-63
2021/03/24 01:56:51;;;;;;;0.57;0.57;;;;;;;-1.52;63.21;97744.74;1640619;86;21188;-64
2021/03/24 01:59:19;;;;;;;0.53;0.35;;;;;;;-1.56;62.48;97745.81;1637440;85;21235;-64
2021/03/24 02:01:47;;;;;;;0.40;0.40;;;;;;;-1.57;63.02;97734.42;1629636;86;21200;-64
2021/03/24 02:04:16;;;;;;;0.57;0.57;;;;;;;-1.56;62.82;97734.36;1644799;86;21633;-63
2021/03/24 02:10:10;;;;;;;0.13;0.13;;;;;;;-1.54;62.50;97735.09;1682570;82;21182;-63
2021/03/24 02:12:46;;;;;;;1.40;0.42;;;;;;;-1.52;62.10;97729.46;1686710;83;21147;-63
2021/03/24 02:15:22;;;;;;;0.78;0.60;;;;;;;-1.51;61.57;97732.39;1688421;83;21571;-63
2021/03/24 02:17:53;;;;;;;0.10;0.10;;;;;;;-1.50;62.23;97734.49;1691376;83;21170;-63
2021/03/24 02:20:34;;;;;;;0.40;0.40;;;;;;;-1.51;61.64;97732.39;1693514;83;21175;-63
2021/03/24 02:23:29;;;;;;;0.90;0.57;;;;;;;-1.52;60.96;97735.83;1683006;83;21245;-63
2021/03/24 02:26:20;;;;;;;2.47;0.40;;;;;;;-1.64;60.21;97742.81;1688651;83;21179;-63
2021/03/24 02:28:51;;;;;;;1.35;1.25;;;;;;;-1.64;60.21;97742.81;1660410;85;21171;-63
2021/03/24 02:31:23;;;;;;;0.35;0.33;;;;;;;-1.66;60.42;97752.22;1636291;85;21258;-63
2021/03/24 02:33:55;;;;;;;0.60;0.40;;;;;;;-1.67;60.92;97753.56;1663589;85;21203;-63
2021/03/24 02:36:25;;;;;;;0.60;0.60;;;;;;;-1.75;60.45;97757.74;1628469;86;21592;-63
2021/03/24 02:38:57;;;;;;;0.35;0.35;;;;;;;-1.80;62.62;97760.14;1701336;82;21227;-64
2021/03/24 02:41:27;;;;;;;0.30;0.30;;;;;;;-1.85;63.97;97759.52;1660262;84;22397;-63
2021/03/24 02:43:56;;;;;;;1.55;0.75;;;;;;;-1.89;62.03;97759.29;1664284;85;21604;-63
2021/03/24 02:46:26;;;;;;;0.78;0.50;;;;;;;-1.95;64.46;97765.50;1697439;83;21146;-63
2021/03/24 02:48:57;;;;;;;0.20;0.20;;;;;;;-2.01;64.16;97759.41;1667838;84;21224;-63
2021/03/24 02:51:26;;;;;;;0.42;0.42;;;;;;;-2.09;64.88;97762.30;1631451;86;21724;-63
2021/03/24 02:53:56;;;;;;;0.62;0.60;;;;;;;-2.10;63.61;97763.67;1639630;86;21271;-63
2021/03/24 02:56:24;;;;;;;0.60;0.55;;;;;;;-2.14;63.79;97763.42;1627742;86;21268;-63
2021/03/24 02:59:07;;;;;;;1.10;0.60;;;;;;;-2.08;63.44;97769.50;1604684;88;21278;-63
2021/03/24 03:01:55;;;;;;;0.40;0.40;;;;;;;-2.07;62.69;97768.61;1614267;86;22237;-64
2021/03/24 03:04:38;;;;;;;0.30;0.30;;;;;;;-2.05;62.95;97768.08;1640485;86;21177;-63
2021/03/24 03:07:12;;;;;;;0.13;0.13;;;;;;;-2.06;63.40;97775.33;1645491;86;21701;-63
2021/03/24 03:10:25;;;;;;;1.98;0.80;;;;;;;-2.08;65.33;97772.04;1780362;79;23049;-63
2021/03/24 03:13:20;;;;;;;0.68;0.62;;;;;;;-2.18;65.62;97780.99;1753469;82;21587;-61
2021/03/24 03:15:55;;;;;;;0.60;0.57;;;;;;;-2.20;65.50;97784.03;1753522;81;21184;-63
2021/03/24 03:18:46;;;;;;;0.57;0.50;;;;;;;-2.20;65.79;97781.05;1780071;79;22986;-65
2021/03/24 03:21:19;;;;;;;1.37;1.12;;;;;;;-2.28;65.12;97788.64;1737568;82;21188;-65
2021/03/24 03:23:50;;;;;;;1.05;0.60;;;;;;;-2.29;65.35;97788.25;1753335;80;21188;-63
2021/03/24 03:26:21;;;;;;;0.68;0.68;;;;;;;-2.31;65.23;97785.80;1753476;82;21175;-63
2021/03/24 03:28:55;;;;;;;0.78;0.78;;;;;;;-2.29;65.01;97790.36;1753713;82;21152;-63
2021/03/24 03:31:27;;;;;;;0.55;0.55;;;;;;;-2.32;64.85;97787.12;1753406;81;21169;-64
2021/03/24 03:33:56;;;;;;;0.55;0.53;;;;;;;-2.32;64.58;97792.20;1753492;82;21672;-66
2021/03/24 03:36:27;;;;;;;0.90;0.65;;;;;;;-2.31;63.97;97793.88;1753426;82;21584;-66
2021/03/24 03:38:57;;;;;;;0.90;0.90;;;;;;;-2.30;63.78;97798.07;1753507;82;21179;-65
2021/03/24 03:41:26;;;;;;;0.68;0.68;;;;;;;-2.32;64.33;97802.38;1753611;81;21160;-66
2021/03/24 03:43:55;;;;;;;0.40;0.40;;;;;;;-2.37;63.84;97803.85;1753346;82;21185;-64
2021/03/24 03:46:28;;;;;;;0.35;0.35;;;;;;;-2.39;63.50;97803.11;1725047;82;21580;-66
2021/03/24 03:48:57;;;;;;;0.15;0.15;;;;;;;-2.38;62.98;97803.50;1753643;82;21153;-66
2021/03/24 03:51:55;;;;;;;1.10;1.05;;;;;;;-2.39;63.45;97808.20;1753660;82;21164;-64
2021/03/24 03:54:43;;;;;;;0.28;0.28;;;;;;;-2.33;62.97;97810.92;1819540;79;22942;-66
2021/03/24 03:57:32;;;;;;;0.40;0.40;;;;;;;-2.39;63.43;97814.55;1793045;80;21315;-66
2021/03/24 04:00:24;;;;;;;0.53;0.53;;;;;;;-2.39;63.50;97814.55;1762536;80;21176;-65
2021/03/24 04:03:16;;;;;;;0.40;0.40;;;;;;;-2.37;63.83;97814.50;1792845;80;21699;-64
2021/03/24 04:05:56;;;;;;;1.72;1.07;;;;;;;-2.40;63.58;97818.81;1792861;80;22057;-64
2021/03/24 04:08:28;;;;;;;0.90;0.57;;;;;;;-2.42;64.53;97819.34;1792982;80;21293;-65
2021/03/24 04:11:00;;;;;;;0.40;0.40;;;;;;;-2.45;64.64;97818.62;1792993;80;21365;-65
2021/03/24 04:13:32;;;;;;;0.35;0.35;;;;;;;-2.51;65.25;97823.54;1792862;80;21329;-65
2021/03/24 04:16:03;;;;;;;1.30;0.85;;;;;;;-2.52;65.50;97832.48;1793149;80;21290;-65
2021/03/24 04:19:00;;;;;;;1.15;0.95;;;;;;;-2.61;65.83;97826.11;1793084;80;21148;-66
2021/03/24 04:21:33;;;;;;;0.82;0.70;;;;;;;-2.59;65.59;97838.29;1740841;81;21572;-65
2021/03/24 04:24:09;;;;;;;0.85;0.85;;;;;;;-2.61;65.48;97836.72;1722946;81;21580;-66
2021/03/24 04:26:41;;;;;;;;;;;;;;;-2.64;65.75;97836.82;1743463;81;21159;-66
2021/03/24 04:32:12;;;;;;;0.98;0.82;;;;;;;-2.66;65.94;97848.34;1748132;81;21148;-66
2021/03/24 04:34:41;;;;;;;0.62;0.62;;;;;;;-2.65;66.05;97853.81;1748439;82;21197;-64
2021/03/24 04:37:40;;;;;;;0.60;0.60;;;;;;;-2.62;66.04;97850.31;1748331;81;21717;-63
2021/03/24 04:40:29;;;;;;;0.20;0.20;;;;;;;-2.60;65.71;97850.61;1748309;82;21626;-64
2021/03/24 04:43:10;;;;;;;0.40;0.40;;;;;;;-2.59;65.55;97856.53;1748263;82;21706;-63
2021/03/24 04:45:58;;;;;;;0.50;0.50;;;;;;;-2.56;65.58;97861.48;1721647;82;21158;-65
2021/03/24 04:48:36;;;;;;;0.42;0.42;;;;;;;-2.52;65.26;97868.08;1748369;82;21780;-64
2021/03/24 04:51:16;;;;;;;0.75;0.68;;;;;;;-2.51;65.22;97867.20;1748492;82;21611;-65
2021/03/24 04:53:49;;;;;;;0.40;0.40;;;;;;;-2.51;64.93;97868.03;1748436;82;21630;-65
2021/03/24 04:56:20;;;;;;;0.42;0.42;;;;;;;-2.49;65.40;97871.80;1745913;81;21574;-65
2021/03/24 04:58:55;;;;;;;1.17;0.70;;;;;;;-2.47;65.66;97876.35;1748324;81;21138;-65
2021/03/24 05:01:54;;;;;;;0.28;0.28;;;;;;;-2.51;65.76;97879.47;1748611;81;21119;-65
2021/03/24 05:04:58;;;;;;;0.93;0.90;;;;;;;-2.45;65.61;97883.02;1701910;84;21164;-65
2021/03/24 05:07:46;;;;;;;0.50;0.50;;;;;;;-2.38;65.67;97884.88;1627972;88;21632;-67
2021/03/24 05:10:22;;;;;;;1.80;1.47;;;;;;;-2.35;65.10;97884.73;1609444;87;21189;-66
2021/03/24 05:13:14;;;;;;;1.20;1.10;;;;;;;-2.28;64.80;97887.83;1650041;87;21290;-65
2021/03/24 05:15:47;;;;;;;0.93;0.93;;;;;;;-2.23;64.92;97890.57;1649697;86;21207;-65
2021/03/24 05:18:16;;;;;;;1.32;0.80;;;;;;;-2.18;64.71;97892.45;1643501;87;21176;-65
2021/03/24 05:21:07;;;;;;;0.37;0.37;;;;;;;-2.11;64.84;97895.13;1646559;86;21260;-66
2021/03/24 05:23:36;;;;;;;1.30;1.05;;;;;;;-2.03;64.90;97895.63;1650283;86;21190;-71
2021/03/24 05:26:12;;;;;;;1.10;0.95;;;;;;;-1.96;63.44;97894.45;1651945;86;21190;-64
2021/03/24 05:28:46;;;;;;;0.75;0.75;;;;;;;-1.86;63.62;97899.13;1649591;86;21205;-65
2021/03/24 05:34:16;;;;;;;5.15;1.15;;;;;;;-1.71;63.08;97895.45;1667838;86;21607;-64
2021/03/24 05:37:08;;;;;;;0.57;0.27;;;;;;;-1.62;63.27;97900.13;1660328;85;21313;-63
2021/03/24 05:39:40;;;;;;;1.10;0.85;;;;;;;-1.51;62.27;97897.09;1640057;87;21175;-63
2021/03/24 05:42:34;;;;;;;1.30;1.20;;;;;;;-1.44;61.88;97901.83;1673213;85;21343;-67
2021/03/24 05:45:34;;;;;;;0.72;0.72;;;;;;;-1.35;62.39;97906.95;1655646;86;21635;-64
2021/03/24 05:48:29;;;;;;;1.25;1.15;;;;;;;-1.27;61.93;97901.50;1693995;84;21619;-63
2021/03/24 05:51:56;;;;;;;0.95;0.95;;;;;;;-1.17;61.76;97907.84;1645018;87;21639;-65
2021/03/24 05:55:02;;;;;;;2.37;0.98;;;;;;;-1.06;60.97;97907.70;1554811;91;21212;-66
2021/03/24 05:57:52;;;;;;;0.60;0.60;;;;;;;-0.91;60.62;97909.97;1554170;92;21588;-66
2021/03/24 06:00:48;;;;;;;1.45;1.07;;;;;;;-0.69;60.74;97908.02;1799758;77;23442;-65
2021/03/24 06:03:58;;;;;;;4.60;2.10;;;;;;;-0.52;60.50;97918.68;1777341;79;28269;-64
2021/03/24 06:06:49;;;;;;;2.17;1.52;;;;;;;-0.38;60.17;97915.43;1801732;78;21108;-63
2021/03/24 06:09:25;;;;;;;3.35;1.90;;;;;;;-0.13;57.59;97917.14;1684927;84;21197;-64
2021/03/24 06:12:21;;;;;;;1.10;0.75;;;;;;;-0.13;57.59;97917.14;1680459;84;21210;-64
2021/03/24 06:15:12;;;;;;;0.62;0.62;;;;;;;0.02;58.41;97921.91;1668949;85;21194;-65
2021/03/24 06:26:40;;;;;;;0.65;0.65;;;;;;;0.52;52.52;97926.47;1642836;87;21135;-65
2021/03/24 07:08:16;;;;;;;0.50;0.40;;;;;;;2.23;45.60;97962.77;1670499;86;21266;-69
2021/03/24 07:11:32;;;;;;;1.02;0.75;;;;;;;2.30;43.73;97958.92;1682004;85;21175;-67
2021/03/24 07:14:39;;;;;;;0.60;0.60;;;;;;;2.51;47.55;97963.22;1658978;86;21214;-66
2021/03/24 07:18:04;;;;;;;0.35;0.35;;;;;;;2.53;42.77;97964.42;1688066;85;21165;-65
2021/03/24 07:21:11;;;;;;;7.95;0.70;;;;;;;2.55;45.33;97959.56;1658930;86;21194;-66
2021/03/24 07:24:04;;;;;;;0.30;0.30;;;;;;;2.64;43.44;97967.16;1683580;84;21605;-67
2021/03/24 07:27:04;;;;;;;1.17;0.55;;;;;;;2.81;44.31;97971.59;1684197;85;21178;-66
2021/03/24 07:30:21;;;;;;;0.40;0.20;;;;;;;2.77;39.83;97968.86;1617534;88;21673;-65
2021/03/24 07:33:03;;;;;;;1.22;0.62;;;;;;;2.85;40.72;97967.10;1710719;84;21174;-67
2021/03/24 07:36:19;;;;;;;0.40;0.40;;;;;;;2.97;42.64;97965.06;1741090;82;21134;-66
2021/03/24 07:39:16;;;;;;;0.47;0.33;;;;;;;3.08;43.14;97963.92;1683400;85;21173;-65
2021/03/24 07:42:22;;;;;;;1.65;0.37;;;;;;;3.11;39.28;97957.31;1662147;84;21211;-66
2021/03/24 07:48:33;;;;;;;2.47;0.50;;;;;;;3.21;39.32;97971.23;1743070;81;21766;-65
2021/03/24 07:57:51;;;;;;;0.45;0.45;;;;;;;3.53;43.77;97965.78;1684597;84;21154;-65
2021/03/24 08:00:54;;;;;;;0.72;0.68;;;;;;;3.63;43.05;97968.11;1660270;86;21192;-65
2021/03/24 08:03:57;;;;;;;0.55;0.35;;;;;;;3.67;39.09;97969.09;1642926;86;21599;-65
2021/03/24 08:06:51;;;;;;;0.55;0.45;;;;;;;3.68;39.98;97969.92;1659479;85;21198;-66
2021/03/24 08:09:41;;;;;;;0.40;0.40;;;;;;;3.70;39.99;97974.48;1688087;84;21227;-65
2021/03/24 08:12:23;;;;;;;0.43;0.43;;;;;;;3.69;37.53;97980.56;1634046;85;21196;-65
2021/03/24 08:15:37;;;;;;;0.82;0.40;;;;;;;3.45;34.41;97977.00;1687717;85;21187;-63
2021/03/24 08:18:48;;;;;;;2.33;0.70;;;;;;;3.36;35.01;97975.84;1714637;83;21591;-63
2021/03/24 08:25:20;;;;;;;0.72;0.30;;;;;;;3.67;36.32;97975.97;1645706;85;21193;-64
2021/03/24 08:28:05;;;;;;;0.50;0.40;;;;;;;3.73;35.89;97974.30;1626125;87;21214;-64
2021/03/24 08:31:28;;;;;;;1.60;0.50;;;;;;;3.82;34.85;97974.97;1594609;88;21639;-64
2021/03/24 08:34:28;;;;;;;0.72;0.50;;;;;;;3.85;35.66;97970.94;1661465;85;21201;-64
2021/03/24 08:37:41;;;;;;;0.47;0.30;;;;;;;4.00;34.33;97971.20;1644060;87;21184;-64
2021/03/24 08:40:34;;;;;;;0.62;0.40;;;;;;;4.01;34.43;97973.32;1597219;88;21214;-63
2021/03/24 08:43:37;;;;;;;1.20;0.45;;;;;;;4.06;35.72;97972.07;1644200;87;21188;-64
2021/03/24 08:46:50;;;;;;;0.65;0.37;;;;;;;3.97;35.55;97962.39;1684434;84;21160;-65
2021/03/24 08:49:27;;;;;;;0.40;0.35;;;;;;;4.09;35.63;97970.58;1634365;86;21620;-63
2021/03/24 08:52:06;;;;;;;0.30;0.30;;;;;;;4.32;39.46;97975.45;1604562;89;21236;-64
2021/03/24 08:54:54;;;;;;;0.33;0.33;;;;;;;4.44;37.32;97969.48;1631770;87;21204;-64
2021/03/24 08:57:53;;;;;;;0.40;0.40;;;;;;;4.50;37.37;97969.08;1604615;88;21592;-64
2021/03/24 09:00:51;;;;;;;1.82;0.70;;;;;;;4.54;36.22;97973.55;1631682;87;21637;-65
2021/03/24 09:04:00;;;;;;;1.25;0.60;;;;;;;4.52;35.42;97977.95;1585974;88;21200;-65
2021/03/24 09:07:07;;;;;;;0.67;0.37;;;;;;;4.64;38.44;97973.27;1632106;87;21181;-65
2021/03/24 09:09:43;;;;;;;1.40;0.82;;;;;;;5.11;36.31;97971.23;1631857;86;21306;-64
2021/03/24 09:12:35;;;;;;;1.15;0.40;;;;;;;5.30;33.85;97974.61;1630832;86;21201;-66
2021/03/24 09:15:44;;;;;;;0.30;0.30;;;;;;;5.87;40.54;97976.88;1630325;87;21170;-67
2021/03/24 09:18:33;;;;;;;0.98;0.50;;;;;;;6.23;35.51;97978.45;1561105;91;21290;-63
2021/03/24 09:21:21;;;;;;;1.52;0.50;;;;;;;6.76;32.14;97967.93;1798494;79;28417;-65
2021/03/24 09:24:20;;;;;;;0.50;0.50;;;;;;;7.37;39.96;97964.38;1756950;82;21143;-66
2021/03/24 09:27:25;;;;;;;1.15;0.53;;;;;;;7.93;38.81;97966.27;1755971;81;21132;-65
2021/03/24 09:30:22;;;;;;;1.20;0.40;;;;;;;7.96;29.73;97972.47;1757248;81;21194;-68
2021/03/24 09:33:29;;;;;;;1.65;0.47;;;;;;;8.68;38.85;97968.10;1757478;80;21179;-65
2021/03/24 09:36:39;;;;;;;0.72;0.40;;;;;;;9.36;37.13;97963.91;1653036;86;21281;-65
2021/03/24 09:42:28;;;;;;;1.67;0.78;;;;;;;9.81;25.37;97959.81;1646831;87;21171;-66
2021/03/24 09:51:25;;;;;;;0.70;0.53;;;;;;;10.28;24.40;97961.20;1674958;86;21179;-66
2021/03/24 09:54:08;;;;;;;0.35;0.35;;;;;;;9.36;24.16;97965.21;1674159;84;21183;-68
2021/03/24 09:56:37;;;;;;;0.47;0.37;;;;;;;9.25;24.14;97965.34;1664949;84;21143;-65
2021/03/24 09:59:34;;;;;;;0.35;0.30;;;;;;;8.98;23.19;97959.02;1670551;83;21145;-66
2021/03/24 10:02:44;;;;;;;1.02;0.57;;;;;;;9.13;24.34;97962.05;1652241;85;21155;-65
2021/03/24 10:05:52;;;;;;;2.37;1.00;;;;;;;9.62;24.22;97955.94;1801521;79;27907;-66
2021/03/24 10:08:31;;;;;;;0.30;0.30;;;;;;;9.82;24.11;97961.46;1756062;81;21157;-65
2021/03/24 10:11:05;;;;;;;0.90;0.57;;;;;;;9.47;24.56;97959.89;1755670;81;21535;-65
2021/03/24 10:13:40;;;;;;;0.98;0.60;;;;;;;9.17;24.84;97961.30;1756195;81;21558;-65
2021/03/24 10:16:20;;;;;;;1.35;0.60;;;;;;;9.24;26.30;97946.38;1755939;82;21157;-66
2021/03/24 10:19:22;;;;;;;0.57;0.50;;;;;;;9.26;24.32;97944.45;1756043;81;21689;-65
2021/03/24 10:22:16;;;;;;;1.10;0.47;;;;;;;8.72;23.86;97945.36;1744795;81;21153;-65
2021/03/24 10:24:50;;;;;;;0.53;0.30;;;;;;;8.39;24.67;97944.70;1746830;82;21691;-64
2021/03/24 10:27:24;;;;;;;0.82;0.30;;;;;;;8.73;24.83;97943.94;1711196;82;21147;-66
2021/03/24 10:30:16;;;;;;;1.02;0.40;;;;;;;8.90;26.77;97947.20;1711621;84;21153;-65
2021/03/24 10:33:02;;;;;;;0.40;0.37;;;;;;;8.91;26.56;97946.73;1711483;82;21610;-64
2021/03/24 10:35:41;;;;;;;0.33;0.33;;;;;;;8.89;27.12;97949.92;1711594;83;21206;-65
2021/03/24 10:38:29;;;;;;;1.77;0.68;;;;;;;8.93;28.96;97948.23;1710808;83;21171;-65
2021/03/24 10:41:27;;;;;;;0.35;0.30;;;;;;;8.95;27.50;97947.61;1711547;82;21162;-64
2021/03/24 10:44:21;;;;;;;1.10;0.53;;;;;;;8.79;27.12;97940.02;1711494;82;21218;-63
2021/03/24 10:47:10;;;;;;;2.52;0.33;;;;;;;8.81;30.38;97946.69;1712050;82;21163;-64
2021/03/24 10:49:56;;;;;;;0.40;0.30;;;;;;;8.79;26.40;97942.14;1711770;83;21638;-66
2021/03/24 10:52:31;;;;;;;1.05;0.55;;;;;;;8.79;28.65;97941.31;1711428;83;21217;-65
2021/03/24 10:55:04;;;;;;;0.47;0.40;;;;;;;8.79;29.52;97933.55;1711422;83;21598;-65
2021/03/24 10:57:51;;;;;;;0.93;0.40;;;;;;;8.82;29.07;97932.80;1711474;83;21234;-66
2021/03/24 11:00:48;;;;;;;0.62;0.47;;;;;;;8.90;28.33;97938.14;1711873;82;21195;-69
2021/03/24 11:03:30;;;;;;;7.65;3.30;;;;;;;8.90;28.52;97940.73;1777371;81;21187;-63
2021/03/24 11:06:16;;;;;;;1.42;1.00;;;;;;;8.53;24.33;97931.88;1778149;79;21324;-63
2021/03/24 11:09:06;;;;;;;0.95;0.40;;;;;;;8.42;25.29;97933.27;1742641;82;21191;-63
2021/03/24 11:11:54;;;;;;;0.93;0.50;;;;;;;8.48;25.44;97933.55;1802158;79;21159;-63
2021/03/24 11:14:27;;;;;;;0.90;0.50;;;;;;;8.82;24.66;97924.21;1804426;79;21192;-63
2021/03/24 11:17:00;;;;;;;0.35;0.20;;;;;;;9.78;24.39;97916.02;1803830;79;21162;-63
2021/03/24 11:19:45;;;;;;;0.28;0.28;;;;;;;10.72;23.46;97913.76;1802575;79;21110;-64
2021/03/24 11:22:39;;;;;;;0.28;0.28;;;;;;;11.63;29.47;97913.20;1804087;79;21146;-64
2021/03/24 11:25:24;;;;;;;0.95;0.60;;;;;;;12.40;30.09;97904.14;1803983;79;21099;-63
2021/03/24 11:28:03;;;;;;;0.47;0.40;;;;;;;12.44;20.59;97900.26;1792084;79;21143;-64
2021/03/24 11:30:36;;;;;;;0.93;0.55;;;;;;;12.54;19.50;97898.34;1803944;79;21512;-64
2021/03/24 11:33:33;;;;;;;0.72;0.40;;;;;;;12.26;19.09;97893.80;1803953;79;21123;-64
2021/03/24 11:39:27;;;;;;;3.42;0.75;;;;;;;12.68;18.62;97891.22;1729204;83;20138;-66
2021/03/24 11:42:15;;;;;;;2.85;1.40;;;;;;;12.46;18.92;97887.88;1713988;82;21159;-66
2021/03/24 11:44:47;;;;;;;0.40;0.40;;;;;;;13.51;21.11;97889.47;1716909;82;21187;-67
2021/03/24 11:47:41;;;;;;;0.55;0.33;;;;;;;14.18;17.05;97886.14;1716741;83;21168;-67
2021/03/24 11:53:31;;;;;;;1.40;0.70;;;;;;;15.89;17.33;97871.13;1608571;87;21619;-66
2021/03/24 11:56:19;;;;;;;0.82;0.40;;;;;;;16.09;16.63;97874.87;1688656;83;21599;-66
2021/03/24 11:59:11;;;;;;;1.10;0.55;;;;;;;16.26;20.97;97881.58;1688490;84;21212;-67
2021/03/24 12:02:13;;;;;;;0.70;0.60;;;;;;;16.90;21.54;97886.56;1685870;84;21177;-66
2021/03/24 12:05:11;;;;;;;1.25;0.40;;;;;;;17.34;19.99;97887.75;1688235;84;21174;-66
2021/03/24 12:09:03;;;;;;;1.12;0.53;;;;;;;16.19;14.81;97859.69;1819841;79;26239;-67
2021/03/24 12:11:34;;;;;;;3.33;0.60;;;;;;;17.52;15.46;97863.17;1728173;83;21219;-65
2021/03/24 12:14:22;;;;;;;1.75;0.68;;;;;;;17.48;15.04;97866.36;1758389;81;21310;-66
2021/03/24 12:16:59;;;;;;;0.53;0.40;;;;;;;17.51;15.72;97863.34;1758282;81;21231;-64
2021/03/24 12:19:43;;;;;;;0.95;0.47;;;;;;;17.51;14.92;97865.48;1758517;81;21172;-64
2021/03/24 12:22:35;;;;;;;0.90;0.60;;;;;;;17.39;18.36;97865.66;1728444;83;21218;-64
2021/03/24 12:25:28;;;;;;;0.60;0.40;;;;;;;16.70;19.57;97872.89;1678014;84;21206;-64
2021/03/24 12:28:07;;;;;;;0.75;0.37;;;;;;;16.46;18.81;97866.91;1680872;84;21174;-63
2021/03/24 12:30:45;;;;;;;3.27;1.37;;;;;;;16.06;18.87;97866.06;1649280;86;21230;-64
2021/03/24 12:33:22;;;;;;;0.82;0.70;;;;;;;15.43;18.34;97862.50;1680737;84;21186;-64
2021/03/24 12:36:14;;;;;;;1.07;0.50;;;;;;;15.70;21.63;97864.60;1649220;86;21602;-64
2021/03/24 12:39:01;;;;;;;0.90;0.40;;;;;;;15.81;21.77;97862.86;1680952;84;21245;-66
2021/03/24 12:41:43;;;;;;;2.50;0.72;;;;;;;15.83;19.22;97862.70;1649333;86;21583;-66
2021/03/24 12:44:30;;;;;;;2.45;0.50;;;;;;;15.31;21.03;97864.72;1660768;86;21622;-66
2021/03/24 12:47:03;;;;;;;0.88;0.60;;;;;;;13.81;16.67;97861.91;1648744;86;21162;-66
2021/03/24 12:49:37;;;;;;;0.62;0.53;;;;;;;14.22;18.74;97862.62;1680878;85;21631;-64
2021/03/24 12:52:30;;;;;;;0.85;0.50;;;;;;;13.03;17.26;97861.53;1649180;86;21174;-67
2021/03/24 12:54:59;;;;;;;4.08;0.60;;;;;;;12.54;17.41;97862.35;1636578;86;21254;-64
2021/03/24 13:01:26;;;;;;;1.37;0.30;;;;;;;12.65;19.49;97856.85;1644225;86;21242;-64
2021/03/24 13:04:22;;;;;;;0.72;0.55;;;;;;;12.84;20.46;97854.80;1721417;83;21560;-63
2021/03/24 13:07:46;;;;;;;0.75;0.50;;;;;;;12.30;18.77;97865.19;1721440;83;21167;-65
2021/03/24 13:10:47;;;;;;;0.80;0.42;;;;;;;12.58;18.54;97857.16;1706060;83;21119;-66
2021/03/24 13:13:38;;;;;;;1.02;0.60;;;;;;;12.74;22.98;97857.22;1680888;84;21275;-66
2021/03/24 13:16:32;;;;;;;1.10;0.50;;;;;;;12.90;20.30;97858.56;1688696;84;21206;-66
2021/03/24 13:19:08;;;;;;;0.80;0.53;;;;;;;13.18;20.64;97854.74;1688312;84;21572;-66
2021/03/24 13:22:05;;;;;;;1.95;0.60;;;;;;;13.36;19.15;97851.97;1683020;84;21143;-66
2021/03/24 13:24:58;;;;;;;0.50;0.40;;;;;;;13.57;18.07;97852.31;1669520;86;21632;-65
2021/03/24 13:27:42;;;;;;;1.15;0.88;;;;;;;14.80;21.10;97843.14;1646640;86;21601;-63
2021/03/24 13:30:34;;;;;;;2.50;0.82;;;;;;;15.44;16.54;97837.48;1646548;86;21192;-63
2021/03/24 13:33:07;;;;;;;1.15;0.60;;;;;;;15.62;15.50;97841.11;1670206;84;21176;-64
2021/03/24 13:38:57;;;;;;;1.82;0.57;;;;;;;17.21;20.30;97839.55;1672209;84;21170;-64
2021/03/24 13:41:26;;;;;;;1.57;0.55;;;;;;;17.99;18.08;97823.16;1672273;84;21174;-63
2021/03/24 13:44:14;;;;;;;1.17;1.07;;;;;;;18.34;17.01;97827.91;1672408;85;21151;-65
2021/03/24 13:46:47;;;;;;;0.72;0.60;;;;;;;17.34;14.60;97825.25;1663996;85;21170;-63
2021/03/24 13:49:44;;;;;;;0.88;0.60;;;;;;;18.42;14.87;97833.00;1672158;86;21642;-67
2021/03/24 13:52:35;;;;;;;1.32;0.60;;;;;;;19.26;17.01;97826.89;1658232;86;21170;-66
2021/03/24 13:55:24;;;;;;;0.70;0.50;;;;;;;18.95;15.09;97824.00;1672346;84;21179;-66
2021/03/24 13:58:26;;;;;;;0.80;0.50;;;;;;;18.87;14.78;97832.10;1671875;84;21198;-66
2021/03/24 14:01:23;;;;;;;0.80;0.50;;;;;;;17.90;13.34;97832.18;1671050;84;21193;-67
2021/03/24 14:04:17;;;;;;;0.65;0.60;;;;;;;19.21;15.94;97828.02;1672248;84;21215;-66
2021/03/24 14:07:06;;;;;;;1.72;0.55;;;;;;;19.35;15.59;97828.84;1774585;81;21192;-66
2021/03/24 14:09:39;;;;;;;1.30;0.50;;;;;;;19.97;15.64;97827.13;1762893;81;21659;-64
2021/03/24 14:12:38;;;;;;;1.15;0.62;;;;;;;20.87;12.77;97821.48;1776396;81;21125;-66
2021/03/24 14:15:27;;;;;;;1.82;0.78;;;;;;;20.41;14.44;97821.68;1775543;81;21589;-66
2021/03/24 14:18:06;;;;;;;0.50;0.50;;;;;;;19.59;12.19;97828.78;1776231;81;21183;-66
2021/03/24 14:26:38;;;;;;;2.92;0.60;;;;;;;18.88;13.05;97835.02;1716375;82;21159;-64
2021/03/24 14:29:38;;;;;;;1.02;0.70;;;;;;;18.81;15.97;97835.50;1716122;82;21234;-65
2021/03/24 14:35:52;;;;;;;1.75;0.53;;;;;;;17.38;13.58;97838.31;1644847;86;21284;-66
2021/03/24 14:39:16;;;;;;;1.15;0.50;;;;;;;18.78;14.72;97830.64;1633898;84;21193;-66